createdAt,value
2018-08-10T00:36:28.205Z,71.40
2018-08-10T00:40:31.622Z,72.10
2018-08-10T00:44:34.978Z,72.80
2018-08-10T00:48:38.293Z,73.60
2018-08-10T00:52:42.698Z,73.40
2018-08-10T00:56:46.042Z,72.60
2018-08-10T01:00:49.476Z,73.00
2018-08-10T01:04:52.819Z,73.70
2018-08-10T01:08:56.182Z,73.50
2018-08-10T01:12:59.509Z,73.80
2018-08-10T01:17:02.859Z,74.30
2018-08-10T01:21:06.263Z,74.40
2018-08-10T01:25:09.643Z,74.60
2018-08-10T01:29:12.970Z,73.90
2018-08-10T01:33:16.297Z,74.10
2018-08-10T01:37:19.618Z,74.20
2018-08-10T01:41:22.964Z,73.40
2018-08-10T01:45:26.351Z,74.70
2018-08-10T01:49:29.681Z,75.10
2018-08-10T01:53:33.012Z,74.60
2018-08-10T01:57:36.836Z,73.30
2018-08-10T02:01:40.336Z,75.10
2018-08-10T02:05:43.674Z,76.90
2018-08-10T02:09:47.009Z,77.70
2018-08-10T02:13:50.317Z,76.20
2018-08-10T02:17:53.675Z,76.20
2018-08-10T02:21:57.002Z,77.50
2018-08-10T02:26:00.341Z,75.40
2018-08-10T02:30:04.037Z,78.00
2018-08-10T02:34:07.476Z,78.90
2018-08-10T02:38:10.824Z,77.60
2018-08-10T02:42:14.138Z,76.30
2018-08-10T02:46:17.468Z,77.30
2018-08-10T02:50:20.813Z,77.40
2018-08-10T02:54:24.127Z,76.60
2018-08-10T02:58:27.486Z,76.70
2018-08-10T03:02:30.892Z,76.50
2018-08-10T03:06:34.240Z,76.50
2018-08-10T03:10:37.999Z,77.40
2018-08-10T03:14:41.929Z,75.90
2018-08-10T03:18:45.259Z,77.30
2018-08-10T03:22:48.600Z,76.60
2018-08-10T03:26:51.936Z,74.70
2018-08-10T03:30:55.295Z,76.70
2018-08-10T03:34:58.639Z,76.80
2018-08-10T03:39:01.978Z,77.40
2018-08-10T03:43:05.367Z,75.80
2018-08-10T03:47:08.704Z,76.10
2018-08-10T03:51:12.040Z,76.50
2018-08-10T03:55:15.379Z,75.30
2018-08-10T03:59:18.739Z,74.70
2018-08-10T04:03:22.120Z,75.80
2018-08-10T04:07:25.480Z,76.10
2018-08-10T04:11:28.833Z,76.20
2018-08-10T04:15:32.168Z,76.90
2018-08-10T04:19:35.491Z,75.40
2018-08-10T04:23:38.874Z,76.50
2018-08-10T04:27:42.210Z,76.90
2018-08-10T04:31:45.545Z,77.10
2018-08-10T04:35:48.902Z,74.90
2018-08-10T04:39:52.332Z,76.70
2018-08-10T04:43:56.706Z,76.80
2018-08-10T04:48:02.517Z,76.60
2018-08-10T04:52:06.028Z,77.20
2018-08-10T04:56:09.363Z,76.20
2018-08-10T05:00:13.869Z,77.20
2018-08-10T05:04:17.247Z,77.10
2018-08-10T05:08:20.585Z,78.50
2018-08-10T05:12:23.980Z,77.60
2018-08-10T05:16:27.333Z,77.90
2018-08-10T05:20:30.665Z,77.60
2018-08-10T05:24:34.000Z,78.50
2018-08-10T05:28:37.364Z,76.70
2018-08-10T05:32:40.999Z,77.00
2018-08-10T05:36:44.380Z,76.90
2018-08-10T05:40:47.725Z,76.80
2018-08-10T05:44:51.055Z,76.00
2018-08-10T05:48:54.408Z,77.20
2018-08-10T05:52:57.748Z,76.10
2018-08-10T05:57:01.125Z,75.00
2018-08-10T06:01:48.772Z,75.40
2018-08-10T06:05:52.096Z,74.50
2018-08-10T06:09:56.508Z,76.10
2018-08-10T06:13:59.864Z,76.10
2018-08-10T06:18:03.204Z,75.30
2018-08-10T06:22:06.622Z,75.40
2018-08-10T06:26:09.972Z,75.20
2018-08-10T06:30:13.508Z,75.60
2018-08-10T06:34:16.985Z,74.80
2018-08-10T06:38:20.213Z,74.90
2018-08-10T06:42:23.546Z,74.60
2018-08-10T06:46:26.869Z,74.40
2018-08-10T06:50:30.221Z,74.40
2018-08-10T06:54:33.605Z,73.40
2018-08-10T06:58:37.088Z,74.40
2018-08-10T07:02:40.930Z,74.30
2018-08-10T07:06:44.255Z,73.40
2018-08-10T07:10:47.704Z,73.50
2018-08-10T07:14:51.044Z,74.90
2018-08-10T07:18:54.468Z,72.90
2018-08-10T07:22:57.806Z,73.40
2018-08-10T07:27:01.374Z,72.60
2018-08-10T07:31:04.637Z,72.60
2018-08-10T07:35:07.997Z,72.90
2018-08-10T07:39:12.468Z,72.40
2018-08-10T07:43:15.800Z,73.10
2018-08-10T07:47:19.199Z,73.70
2018-08-10T07:51:22.779Z,72.50
2018-08-10T07:55:26.122Z,71.80
2018-08-10T07:59:29.551Z,71.90
2018-08-10T08:03:32.903Z,71.30
2018-08-10T08:07:36.270Z,70.80
2018-08-10T08:11:39.732Z,71.10
2018-08-10T08:15:43.068Z,70.40
2018-08-10T08:19:46.536Z,70.30
2018-08-10T08:23:49.860Z,70.00
2018-08-10T08:27:53.167Z,70.10
2018-08-10T08:31:56.514Z,69.40
2018-08-10T08:36:01.031Z,69.20
2018-08-10T08:40:18.965Z,69.00
2018-08-10T08:44:35.083Z,68.40
2018-08-10T08:48:41.167Z,66.90
2018-08-10T08:52:44.478Z,65.60
2018-08-10T08:56:47.835Z,67.40
2018-08-10T09:00:51.228Z,66.50
2018-08-10T09:04:59.987Z,66.30
2018-08-10T09:09:14.647Z,64.50
2018-08-10T09:13:18.039Z,65.00
2018-08-10T09:17:21.419Z,64.50
2018-08-10T09:21:24.868Z,65.40
2018-08-10T09:25:28.200Z,64.90
2018-08-10T09:29:32.436Z,65.60
2018-08-10T09:33:35.771Z,63.60
2018-08-10T09:37:39.190Z,63.90
2018-08-10T09:41:42.524Z,64.00
2018-08-10T09:45:45.901Z,62.20
2018-08-10T09:49:50.127Z,62.20
2018-08-10T09:53:53.481Z,61.50
2018-08-10T09:58:04.804Z,58.80
2018-08-10T10:02:09.162Z,60.50
2018-08-10T10:06:12.537Z,59.40
2018-08-10T10:10:17.088Z,58.80
2018-08-10T10:14:20.428Z,59.20
2018-08-10T10:18:23.785Z,59.80
2018-08-10T10:22:27.122Z,58.50
2018-08-10T10:26:30.456Z,58.60
2018-08-10T10:30:33.780Z,58.10
2018-08-10T10:34:37.131Z,54.10
2018-08-10T10:38:40.495Z,56.30
2018-08-10T10:42:43.847Z,56.30
2018-08-10T10:46:47.175Z,55.60
2018-08-10T10:50:50.515Z,55.90
2018-08-10T10:54:53.859Z,54.40
2018-08-10T10:58:57.196Z,55.00
2018-08-10T11:03:00.594Z,54.10
2018-08-10T11:07:03.968Z,54.00
2018-08-10T11:11:07.320Z,55.30
2018-08-10T11:15:11.430Z,53.70
2018-08-10T11:19:14.819Z,54.80
2018-08-10T11:23:18.160Z,51.40
2018-08-10T11:27:21.541Z,53.90
2018-08-10T11:31:24.870Z,52.90
2018-08-10T11:35:28.212Z,53.60
2018-08-10T11:39:31.584Z,52.40
2018-08-10T11:43:34.919Z,51.50
2018-08-10T11:47:40.032Z,53.30
2018-08-10T11:51:43.360Z,53.30
2018-08-10T11:55:46.693Z,49.70
2018-08-10T11:59:50.066Z,52.20
2018-08-10T12:03:53.408Z,50.70
2018-08-10T12:07:56.796Z,50.70
2018-08-10T12:12:00.171Z,51.50
2018-08-10T12:16:03.540Z,52.40
2018-08-10T12:20:07.019Z,53.10
2018-08-10T12:24:10.416Z,53.10
2018-08-10T12:28:13.747Z,54.00
2018-08-10T12:32:17.074Z,54.50
2018-08-10T12:36:20.455Z,54.80
2018-08-10T12:40:23.851Z,51.40
2018-08-10T12:44:27.216Z,53.80
2018-08-10T12:48:30.584Z,51.30
2018-08-10T12:52:33.960Z,53.50
2018-08-10T12:56:37.268Z,51.50
2018-08-10T13:00:40.623Z,51.40
2018-08-10T13:04:43.993Z,52.50
2018-08-10T13:08:50.233Z,51.50
2018-08-10T13:12:53.562Z,52.20
2018-08-10T13:16:56.916Z,51.00
2018-08-10T13:21:01.941Z,53.00
2018-08-10T13:25:06.072Z,48.80
2018-08-10T13:29:09.414Z,51.40
2018-08-10T13:33:12.788Z,51.70
2018-08-10T13:37:16.103Z,51.30
2018-08-10T13:41:19.720Z,50.70
2018-08-10T13:45:23.361Z,48.20
2018-08-10T13:49:26.753Z,47.80
2018-08-10T13:53:30.128Z,45.10
2018-08-10T13:57:33.440Z,45.40
2018-08-10T14:01:36.840Z,47.50
2018-08-10T14:05:40.248Z,49.10
2018-08-10T14:09:43.589Z,48.20
2018-08-10T14:13:46.977Z,44.90
2018-08-10T14:17:50.321Z,44.70
2018-08-10T14:21:53.780Z,47.80
2018-08-10T14:25:57.115Z,47.00
2018-08-10T14:30:00.644Z,44.30
2018-08-10T14:34:03.864Z,47.20
2018-08-10T14:38:07.483Z,44.50
2018-08-10T14:42:10.988Z,47.30
2018-08-10T14:46:14.427Z,45.50
2018-08-10T14:50:17.973Z,44.00
2018-08-10T14:54:21.332Z,45.90
2018-08-10T14:58:24.696Z,45.10
2018-08-10T15:02:28.052Z,46.50
2018-08-10T15:06:31.487Z,42.60
2018-08-10T15:10:34.761Z,46.70
2018-08-10T15:14:38.118Z,44.50
2018-08-10T15:18:41.482Z,43.90
2018-08-10T15:22:44.844Z,43.30
2018-08-10T15:26:48.175Z,43.60
2018-08-10T15:38:57.899Z,43.60
2018-08-10T15:43:01.252Z,43.10
2018-08-10T15:47:04.667Z,44.90
2018-08-10T15:51:10.168Z,46.80
2018-08-10T15:55:14.232Z,40.40
2018-08-10T15:59:17.584Z,43.40
2018-08-10T16:03:21.051Z,44.10
2018-08-10T16:07:24.390Z,45.80
2018-08-10T16:11:27.732Z,42.00
2018-08-10T16:15:31.068Z,41.80
2018-08-10T16:19:36.278Z,36.80
2018-08-10T16:23:39.646Z,40.20
2018-08-10T16:27:43.719Z,40.20
2018-08-10T16:31:47.127Z,40.80
2018-08-10T16:35:50.482Z,39.90
2018-08-10T16:39:53.820Z,41.20
2018-08-10T16:43:57.236Z,38.40
2018-08-10T16:48:00.577Z,41.20
2018-08-10T16:52:03.970Z,40.70
2018-08-10T16:56:07.281Z,42.20
2018-08-10T17:00:13.459Z,42.20
2018-08-10T17:04:16.804Z,39.80
2018-08-10T17:08:20.144Z,40.80
2018-08-10T17:12:23.483Z,40.20
2018-08-10T17:16:26.816Z,41.00
2018-08-10T17:20:30.190Z,39.50
2018-08-10T17:24:33.524Z,42.30
2018-08-10T17:28:36.872Z,40.90
2018-08-10T17:32:40.385Z,41.50
2018-08-10T17:36:43.732Z,41.00
2018-08-10T17:40:47.112Z,41.30
2018-08-10T17:44:50.454Z,40.90
2018-08-10T17:48:53.805Z,42.20
2018-08-10T17:52:57.254Z,43.40
2018-08-10T17:57:00.508Z,41.60
2018-08-10T18:01:03.916Z,43.10
2018-08-10T18:05:09.232Z,44.00
2018-08-10T18:09:12.592Z,43.30
2018-08-10T18:13:16.117Z,43.70
2018-08-10T18:17:19.473Z,43.60
2018-08-10T18:21:22.808Z,45.00
2018-08-10T18:25:26.151Z,44.90
2018-08-10T18:29:29.528Z,45.10
2018-08-10T18:33:32.870Z,44.60
2018-08-10T18:37:36.687Z,45.20
2018-08-10T18:41:40.576Z,45.20
2018-08-10T18:45:43.923Z,45.50
2018-08-10T18:49:47.263Z,45.60
2018-08-10T18:53:50.607Z,45.80
2018-08-10T18:57:53.971Z,46.10
2018-08-10T19:01:57.327Z,45.90
2018-08-10T19:06:00.656Z,46.00
2018-08-10T19:10:04.681Z,46.30
2018-08-10T19:14:08.009Z,46.30
2018-08-10T19:18:11.335Z,46.80
2018-08-10T19:22:14.672Z,47.00
2018-08-10T19:26:18.005Z,46.50
2018-08-10T19:30:23.035Z,46.50
2018-08-10T19:34:26.331Z,46.70
2018-08-10T19:38:30.023Z,46.90
2018-08-10T19:42:33.351Z,47.70
2018-08-10T19:46:36.703Z,48.00
2018-08-10T19:50:40.036Z,48.10
2018-08-10T19:54:43.392Z,48.30
2018-08-10T19:58:46.748Z,48.30
2018-08-10T20:02:51.239Z,48.50
2018-08-10T20:06:54.604Z,48.80
2018-08-10T20:10:58.078Z,48.90
2018-08-10T20:15:01.632Z,48.90
2018-08-10T20:19:05.046Z,48.60
2018-08-10T20:23:08.387Z,48.80
2018-08-10T20:27:12.247Z,49.20
2018-08-10T20:31:15.701Z,49.20
2018-08-10T20:35:20.011Z,49.40
2018-08-10T20:39:23.544Z,49.30
2018-08-10T20:43:27.412Z,49.30
2018-08-10T20:47:30.799Z,49.90
2018-08-10T20:51:34.812Z,51.00
2018-08-10T20:55:38.239Z,51.40
2018-08-10T20:59:41.576Z,50.60
2018-08-10T21:03:45.271Z,51.50
2018-08-10T21:07:48.684Z,53.00
2018-08-10T21:11:52.460Z,50.70
2018-08-10T21:15:56.101Z,50.40
2018-08-10T21:19:59.442Z,50.50
2018-08-10T21:24:02.799Z,50.80
2018-08-10T21:28:06.144Z,50.90
2018-08-10T21:32:09.613Z,50.40
2018-08-10T21:36:13.348Z,50.80
2018-08-10T21:40:16.884Z,51.40
2018-08-10T21:44:20.558Z,50.90
2018-08-10T21:48:23.902Z,51.30
2018-08-10T21:52:27.253Z,52.10
2018-08-10T21:56:30.635Z,52.20
2018-08-10T22:00:51.814Z,51.90
2018-08-10T22:04:55.649Z,51.20
2018-08-10T22:08:59.058Z,51.70
2018-08-10T22:13:02.427Z,51.90
2018-08-10T22:17:11.383Z,51.50
2018-08-10T22:21:14.765Z,51.60
2018-08-10T22:25:18.173Z,51.20
2018-08-10T22:29:21.559Z,51.80
2018-08-10T22:33:24.905Z,51.50
2018-08-10T22:37:28.366Z,51.30
2018-08-10T22:41:32.000Z,52.50
2018-08-10T22:45:35.366Z,52.70
2018-08-10T22:49:38.725Z,52.30
2018-08-10T22:53:42.071Z,52.40
2018-08-10T22:57:45.448Z,52.50
2018-08-10T23:01:49.399Z,51.60
2018-08-10T23:05:52.811Z,52.00
2018-08-10T23:09:56.607Z,52.00
2018-08-10T23:14:00.091Z,51.80
2018-08-10T23:18:03.432Z,52.00
2018-08-10T23:22:06.804Z,51.90
2018-08-10T23:26:10.227Z,52.00
2018-08-10T23:30:14.533Z,51.70
2018-08-10T23:34:17.978Z,51.70
2018-08-10T23:38:21.322Z,52.10
2018-08-10T23:42:26.022Z,53.50
2018-08-10T23:46:29.654Z,52.10
2018-08-10T23:50:32.977Z,52.00
2018-08-10T23:54:36.347Z,52.00
2018-08-10T23:58:40.529Z,52.50
